sensor_id;sensor_type;location;lat;lon;timestamp;temperature;humidity
57829;DHT22;43657;52.698;6.314;2023-05-07T00:02:06;13.70;99.90
57829;DHT22;43657;52.698;6.314;2023-05-07T00:04:32;13.80;99.90
57829;DHT22;43657;52.698;6.314;2023-05-07T00:07:02;13.80;99.90
57829;DHT22;43657;52.698;6.314;2023-05-07T00:09:28;13.80;99.90
57829;DHT22;43657;52.698;6.314;2023-05-07T00:11:54;13.80;99.90
57829;DHT22;43657;52.698;6.314;2023-05-07T00:14:19;13.70;99.90
57829;DHT22;43657;52.698;6.314;2023-05-07T00:16:46;13.70;99.90
57829;DHT22;43657;52.698;6.314;2023-05-07T00:19:11;13.70;99.90
57829;DHT22;43657;52.698;6.314;2023-05-07T00:21:40;13.70;99.90
57829;DHT22;43657;52.698;6.314;2023-05-07T00:24:06;13.70;99.90
57829;DHT22;43657;52.698;6.314;2023-05-07T00:26:32;13.70;99.90
57829;DHT22;43657;52.698;6.314;2023-05-07T00:28:57;13.60;99.90
57829;DHT22;43657;52.698;6.314;2023-05-07T00:31:23;13.60;99.90
57829;DHT22;43657;52.698;6.314;2023-05-07T00:33:49;13.60;99.90
57829;DHT22;43657;52.698;6.314;2023-05-07T00:36:14;13.60;99.90
57829;DHT22;43657;52.698;6.314;2023-05-07T00:38:40;13.60;99.90
57829;DHT22;43657;52.698;6.314;2023-05-07T00:41:06;13.60;99.90
57829;DHT22;43657;52.698;6.314;2023-05-07T00:43:32;13.60;99.90
57829;DHT22;43657;52.698;6.314;2023-05-07T00:45:57;13.60;99.90
57829;DHT22;43657;52.698;6.314;2023-05-07T00:48:24;13.50;99.90
57829;DHT22;43657;52.698;6.314;2023-05-07T00:50:50;13.60;99.90
57829;DHT22;43657;52.698;6.314;2023-05-07T00:53:16;13.60;99.90
57829;DHT22;43657;52.698;6.314;2023-05-07T00:55:42;13.50;99.90
57829;DHT22;43657;52.698;6.314;2023-05-07T00:58:08;13.50;99.90
57829;DHT22;43657;52.698;6.314;2023-05-07T01:00:34;13.60;99.90
57829;DHT22;43657;52.698;6.314;2023-05-07T01:02:59;13.50;99.90
57829;DHT22;43657;52.698;6.314;2023-05-07T01:05:26;13.50;99.90
57829;DHT22;43657;52.698;6.314;2023-05-07T01:07:56;13.50;99.90
57829;DHT22;43657;52.698;6.314;2023-05-07T01:10:23;13.50;99.90
57829;DHT22;43657;52.698;6.314;2023-05-07T01:12:50;13.50;99.90
57829;DHT22;43657;52.698;6.314;2023-05-07T01:15:16;13.50;99.90
57829;DHT22;43657;52.698;6.314;2023-05-07T01:17:42;13.40;99.90
57829;DHT22;43657;52.698;6.314;2023-05-07T01:20:09;13.40;99.90
57829;DHT22;43657;52.698;6.314;2023-05-07T01:22:39;13.40;99.90
57829;DHT22;43657;52.698;6.314;2023-05-07T01:25:07;13.30;99.90
57829;DHT22;43657;52.698;6.314;2023-05-07T01:27:33;13.40;99.90
57829;DHT22;43657;52.698;6.314;2023-05-07T01:30:01;13.40;99.90
57829;DHT22;43657;52.698;6.314;2023-05-07T01:33:00;13.30;99.90
57829;DHT22;43657;52.698;6.314;2023-05-07T01:35:34;13.40;99.90
57829;DHT22;43657;52.698;6.314;2023-05-07T01:38:02;13.40;99.90
57829;DHT22;43657;52.698;6.314;2023-05-07T01:40:29;13.30;99.90
57829;DHT22;43657;52.698;6.314;2023-05-07T01:42:55;13.40;99.90
57829;DHT22;43657;52.698;6.314;2023-05-07T01:45:21;13.40;99.90
57829;DHT22;43657;52.698;6.314;2023-05-07T01:47:48;13.30;99.90
57829;DHT22;43657;52.698;6.314;2023-05-07T01:50:16;13.20;99.90
57829;DHT22;43657;52.698;6.314;2023-05-07T01:52:43;13.20;99.90
57829;DHT22;43657;52.698;6.314;2023-05-07T01:55:09;13.20;99.90
57829;DHT22;43657;52.698;6.314;2023-05-07T01:57:34;13.20;99.90
57829;DHT22;43657;52.698;6.314;2023-05-07T02:00:03;13.20;99.90
57829;DHT22;43657;52.698;6.314;2023-05-07T02:02:31;13.20;99.90
57829;DHT22;43657;52.698;6.314;2023-05-07T02:04:57;13.20;99.90
57829;DHT22;43657;52.698;6.314;2023-05-07T02:07:23;13.20;99.90
57829;DHT22;43657;52.698;6.314;2023-05-07T02:09:48;13.10;99.90
57829;DHT22;43657;52.698;6.314;2023-05-07T02:12:14;13.20;99.90
57829;DHT22;43657;52.698;6.314;2023-05-07T02:14:39;13.10;99.90
57829;DHT22;43657;52.698;6.314;2023-05-07T02:17:05;13.10;99.90
57829;DHT22;43657;52.698;6.314;2023-05-07T02:19:31;13.00;99.90
57829;DHT22;43657;52.698;6.314;2023-05-07T02:21:56;13.00;99.90
57829;DHT22;43657;52.698;6.314;2023-05-07T02:24:22;12.90;99.90
57829;DHT22;43657;52.698;6.314;2023-05-07T02:26:48;12.90;99.90
57829;DHT22;43657;52.698;6.314;2023-05-07T02:29:13;12.90;99.90
57829;DHT22;43657;52.698;6.314;2023-05-07T02:31:39;12.80;99.90
57829;DHT22;43657;52.698;6.314;2023-05-07T02:34:05;12.80;99.90
57829;DHT22;43657;52.698;6.314;2023-05-07T02:36:31;12.80;99.90
57829;DHT22;43657;52.698;6.314;2023-05-07T02:38:56;12.80;99.90
57829;DHT22;43657;52.698;6.314;2023-05-07T02:41:22;12.80;99.90
57829;DHT22;43657;52.698;6.314;2023-05-07T02:43:47;12.80;99.90
57829;DHT22;43657;52.698;6.314;2023-05-07T02:46:13;12.70;99.90
57829;DHT22;43657;52.698;6.314;2023-05-07T02:48:41;12.60;99.90
57829;DHT22;43657;52.698;6.314;2023-05-07T02:51:07;12.60;99.90
57829;DHT22;43657;52.698;6.314;2023-05-07T02:53:33;12.50;99.90
57829;DHT22;43657;52.698;6.314;2023-05-07T02:56:00;12.50;99.90
57829;DHT22;43657;52.698;6.314;2023-05-07T02:58:26;12.40;99.90
57829;DHT22;43657;52.698;6.314;2023-05-07T03:00:53;12.40;99.90
57829;DHT22;43657;52.698;6.314;2023-05-07T03:03:20;12.30;99.90
57829;DHT22;43657;52.698;6.314;2023-05-07T03:05:46;12.30;99.90
57829;DHT22;43657;52.698;6.314;2023-05-07T03:08:12;12.20;99.90
57829;DHT22;43657;52.698;6.314;2023-05-07T03:10:37;12.00;99.90
57829;DHT22;43657;52.698;6.314;2023-05-07T03:13:03;12.10;99.90
57829;DHT22;43657;52.698;6.314;2023-05-07T03:15:29;12.10;99.90
57829;DHT22;43657;52.698;6.314;2023-05-07T03:17:55;12.10;99.90
57829;DHT22;43657;52.698;6.314;2023-05-07T03:20:21;12.00;99.90
57829;DHT22;43657;52.698;6.314;2023-05-07T03:22:47;12.00;99.90
57829;DHT22;43657;52.698;6.314;2023-05-07T03:25:13;11.90;99.90
57829;DHT22;43657;52.698;6.314;2023-05-07T03:27:41;12.00;99.90
57829;DHT22;43657;52.698;6.314;2023-05-07T03:30:09;11.90;99.90
57829;DHT22;43657;52.698;6.314;2023-05-07T03:32:36;11.90;99.90
57829;DHT22;43657;52.698;6.314;2023-05-07T03:35:01;11.80;99.90
57829;DHT22;43657;52.698;6.314;2023-05-07T03:37:28;11.80;99.90
57829;DHT22;43657;52.698;6.314;2023-05-07T03:39:53;11.80;99.90
57829;DHT22;43657;52.698;6.314;2023-05-07T03:42:19;11.70;99.90
57829;DHT22;43657;52.698;6.314;2023-05-07T03:44:45;11.80;99.90
57829;DHT22;43657;52.698;6.314;2023-05-07T03:47:13;11.70;99.90
57829;DHT22;43657;52.698;6.314;2023-05-07T03:49:39;11.70;99.90
57829;DHT22;43657;52.698;6.314;2023-05-07T03:52:05;11.80;99.90
57829;DHT22;43657;52.698;6.314;2023-05-07T03:54:31;11.80;99.90
57829;DHT22;43657;52.698;6.314;2023-05-07T03:56:59;11.70;99.90
57829;DHT22;43657;52.698;6.314;2023-05-07T03:59:30;11.70;99.90
57829;DHT22;43657;52.698;6.314;2023-05-07T04:01:56;11.70;99.90
57829;DHT22;43657;52.698;6.314;2023-05-07T04:04:22;11.70;99.90
57829;DHT22;43657;52.698;6.314;2023-05-07T04:06:48;11.60;99.90
57829;DHT22;43657;52.698;6.314;2023-05-07T04:09:13;11.60;99.90
57829;DHT22;43657;52.698;6.314;2023-05-07T04:11:39;11.50;99.90
57829;DHT22;43657;52.698;6.314;2023-05-07T04:14:08;11.50;99.90
57829;DHT22;43657;52.698;6.314;2023-05-07T04:16:34;11.50;99.90
57829;DHT22;43657;52.698;6.314;2023-05-07T04:19:00;11.50;99.90
57829;DHT22;43657;52.698;6.314;2023-05-07T04:21:26;11.40;99.90
57829;DHT22;43657;52.698;6.314;2023-05-07T04:23:52;11.50;99.90
57829;DHT22;43657;52.698;6.314;2023-05-07T04:26:18;11.40;99.90
57829;DHT22;43657;52.698;6.314;2023-05-07T04:28:43;11.50;99.90
57829;DHT22;43657;52.698;6.314;2023-05-07T04:31:09;11.50;99.90
57829;DHT22;43657;52.698;6.314;2023-05-07T04:33:37;11.50;99.90
57829;DHT22;43657;52.698;6.314;2023-05-07T04:36:03;11.50;99.90
57829;DHT22;43657;52.698;6.314;2023-05-07T04:38:32;11.50;99.90
57829;DHT22;43657;52.698;6.314;2023-05-07T04:41:03;11.50;99.90
57829;DHT22;43657;52.698;6.314;2023-05-07T04:43:29;11.50;99.90
57829;DHT22;43657;52.698;6.314;2023-05-07T04:45:55;11.60;99.90
57829;DHT22;43657;52.698;6.314;2023-05-07T04:48:20;11.50;99.90
57829;DHT22;43657;52.698;6.314;2023-05-07T04:50:50;11.40;99.90
57829;DHT22;43657;52.698;6.314;2023-05-07T04:53:16;11.50;99.90
57829;DHT22;43657;52.698;6.314;2023-05-07T04:55:42;11.50;99.90
57829;DHT22;43657;52.698;6.314;2023-05-07T04:58:11;11.50;99.90
57829;DHT22;43657;52.698;6.314;2023-05-07T05:00:44;11.60;99.90
57829;DHT22;43657;52.698;6.314;2023-05-07T05:03:10;11.50;99.90
57829;DHT22;43657;52.698;6.314;2023-05-07T05:05:36;11.60;99.90
57829;DHT22;43657;52.698;6.314;2023-05-07T05:08:02;11.60;99.90
57829;DHT22;43657;52.698;6.314;2023-05-07T05:10:28;11.60;99.90
57829;DHT22;43657;52.698;6.314;2023-05-07T05:12:53;11.50;99.90
57829;DHT22;43657;52.698;6.314;2023-05-07T05:15:19;11.60;99.90
57829;DHT22;43657;52.698;6.314;2023-05-07T05:17:45;11.60;99.90
57829;DHT22;43657;52.698;6.314;2023-05-07T05:20:11;11.60;99.90
57829;DHT22;43657;52.698;6.314;2023-05-07T05:22:41;11.70;99.90
57829;DHT22;43657;52.698;6.314;2023-05-07T05:25:07;11.70;99.90
57829;DHT22;43657;52.698;6.314;2023-05-07T05:27:32;11.70;99.90
57829;DHT22;43657;52.698;6.314;2023-05-07T05:30:00;11.70;99.90
57829;DHT22;43657;52.698;6.314;2023-05-07T05:32:31;11.70;99.90
57829;DHT22;43657;52.698;6.314;2023-05-07T05:35:00;11.70;99.90
57829;DHT22;43657;52.698;6.314;2023-05-07T05:37:25;11.80;99.90
57829;DHT22;43657;52.698;6.314;2023-05-07T05:39:52;11.80;99.90
57829;DHT22;43657;52.698;6.314;2023-05-07T05:42:20;11.80;99.90
57829;DHT22;43657;52.698;6.314;2023-05-07T05:44:45;11.80;99.90
57829;DHT22;43657;52.698;6.314;2023-05-07T05:47:14;11.90;99.90
57829;DHT22;43657;52.698;6.314;2023-05-07T05:49:40;11.90;99.90
57829;DHT22;43657;52.698;6.314;2023-05-07T05:52:05;11.90;99.90
57829;DHT22;43657;52.698;6.314;2023-05-07T05:54:31;11.90;99.90
57829;DHT22;43657;52.698;6.314;2023-05-07T05:56:59;11.90;99.90
57829;DHT22;43657;52.698;6.314;2023-05-07T05:59:32;11.90;99.90
57829;DHT22;43657;52.698;6.314;2023-05-07T06:01:57;12.10;99.90
57829;DHT22;43657;52.698;6.314;2023-05-07T06:04:23;12.00;99.90
57829;DHT22;43657;52.698;6.314;2023-05-07T06:06:51;12.10;99.90
57829;DHT22;43657;52.698;6.314;2023-05-07T06:09:16;12.10;99.90
57829;DHT22;43657;52.698;6.314;2023-05-07T06:11:44;12.10;99.90
57829;DHT22;43657;52.698;6.314;2023-05-07T06:14:12;12.10;99.90
57829;DHT22;43657;52.698;6.314;2023-05-07T06:16:38;12.10;99.90
57829;DHT22;43657;52.698;6.314;2023-05-07T06:19:15;12.10;99.90
57829;DHT22;43657;52.698;6.314;2023-05-07T06:21:48;12.10;99.90
57829;DHT22;43657;52.698;6.314;2023-05-07T06:24:30;12.20;99.90
57829;DHT22;43657;52.698;6.314;2023-05-07T06:27:03;12.00;99.90
57829;DHT22;43657;52.698;6.314;2023-05-07T06:29:31;12.10;99.90
57829;DHT22;43657;52.698;6.314;2023-05-07T06:32:13;12.10;99.90
57829;DHT22;43657;52.698;6.314;2023-05-07T06:34:42;12.20;99.90
57829;DHT22;43657;52.698;6.314;2023-05-07T06:37:10;12.20;99.90
57829;DHT22;43657;52.698;6.314;2023-05-07T06:39:35;12.30;99.90
57829;DHT22;43657;52.698;6.314;2023-05-07T06:42:01;12.30;99.90
57829;DHT22;43657;52.698;6.314;2023-05-07T06:44:27;12.40;99.90
57829;DHT22;43657;52.698;6.314;2023-05-07T06:46:53;12.40;99.90
57829;DHT22;43657;52.698;6.314;2023-05-07T06:49:18;12.50;99.90
57829;DHT22;43657;52.698;6.314;2023-05-07T06:51:44;12.60;99.90
57829;DHT22;43657;52.698;6.314;2023-05-07T06:54:09;12.70;99.90
57829;DHT22;43657;52.698;6.314;2023-05-07T06:56:35;12.70;99.90
57829;DHT22;43657;52.698;6.314;2023-05-07T06:59:02;12.70;99.90
57829;DHT22;43657;52.698;6.314;2023-05-07T07:01:28;12.80;99.90
57829;DHT22;43657;52.698;6.314;2023-05-07T07:03:53;12.80;99.90
57829;DHT22;43657;52.698;6.314;2023-05-07T07:06:19;12.80;99.90
57829;DHT22;43657;52.698;6.314;2023-05-07T07:08:45;12.90;99.90
57829;DHT22;43657;52.698;6.314;2023-05-07T07:11:10;13.10;99.90
57829;DHT22;43657;52.698;6.314;2023-05-07T07:13:36;13.20;99.90
57829;DHT22;43657;52.698;6.314;2023-05-07T07:16:02;13.40;99.90
57829;DHT22;43657;52.698;6.314;2023-05-07T07:18:28;13.40;99.90
57829;DHT22;43657;52.698;6.314;2023-05-07T07:20:53;13.60;99.90
57829;DHT22;43657;52.698;6.314;2023-05-07T07:23:19;13.70;99.90
57829;DHT22;43657;52.698;6.314;2023-05-07T07:25:45;14.00;99.90
57829;DHT22;43657;52.698;6.314;2023-05-07T07:28:11;13.90;99.90
57829;DHT22;43657;52.698;6.314;2023-05-07T07:30:37;14.00;99.90
57829;DHT22;43657;52.698;6.314;2023-05-07T07:33:03;14.10;99.90
57829;DHT22;43657;52.698;6.314;2023-05-07T07:35:34;14.10;99.90
57829;DHT22;43657;52.698;6.314;2023-05-07T07:38:03;14.10;99.90
57829;DHT22;43657;52.698;6.314;2023-05-07T07:40:28;14.20;99.90
57829;DHT22;43657;52.698;6.314;2023-05-07T07:43:06;14.30;99.90
57829;DHT22;43657;52.698;6.314;2023-05-07T07:45:37;14.40;99.90
57829;DHT22;43657;52.698;6.314;2023-05-07T07:48:03;14.50;99.90
57829;DHT22;43657;52.698;6.314;2023-05-07T07:50:29;14.50;99.90
57829;DHT22;43657;52.698;6.314;2023-05-07T07:52:55;14.60;99.90
57829;DHT22;43657;52.698;6.314;2023-05-07T07:55:22;14.60;99.90
57829;DHT22;43657;52.698;6.314;2023-05-07T07:57:53;14.70;99.90
57829;DHT22;43657;52.698;6.314;2023-05-07T08:00:19;14.80;99.90
57829;DHT22;43657;52.698;6.314;2023-05-07T08:02:45;14.70;99.90
57829;DHT22;43657;52.698;6.314;2023-05-07T08:05:10;14.90;99.90
57829;DHT22;43657;52.698;6.314;2023-05-07T08:07:36;15.00;99.90
57829;DHT22;43657;52.698;6.314;2023-05-07T08:10:01;14.90;99.90
57829;DHT22;43657;52.698;6.314;2023-05-07T08:12:27;15.00;99.90
57829;DHT22;43657;52.698;6.314;2023-05-07T08:14:53;15.10;99.90
57829;DHT22;43657;52.698;6.314;2023-05-07T08:17:19;15.10;99.90
57829;DHT22;43657;52.698;6.314;2023-05-07T08:19:47;15.40;99.90
57829;DHT22;43657;52.698;6.314;2023-05-07T08:22:13;15.60;99.90
57829;DHT22;43657;52.698;6.314;2023-05-07T08:24:40;15.90;99.90
57829;DHT22;43657;52.698;6.314;2023-05-07T08:27:05;16.00;99.90
57829;DHT22;43657;52.698;6.314;2023-05-07T08:29:31;16.10;99.90
57829;DHT22;43657;52.698;6.314;2023-05-07T08:31:57;16.20;99.90
57829;DHT22;43657;52.698;6.314;2023-05-07T08:34:22;16.30;99.90
57829;DHT22;43657;52.698;6.314;2023-05-07T08:36:48;16.70;99.90
57829;DHT22;43657;52.698;6.314;2023-05-07T08:39:15;17.20;99.90
57829;DHT22;43657;52.698;6.314;2023-05-07T08:41:48;17.70;99.90
57829;DHT22;43657;52.698;6.314;2023-05-07T08:44:16;18.00;99.90
57829;DHT22;43657;52.698;6.314;2023-05-07T08:46:46;18.30;99.90
57829;DHT22;43657;52.698;6.314;2023-05-07T08:49:13;18.50;99.90
57829;DHT22;43657;52.698;6.314;2023-05-07T08:51:39;18.80;99.90
57829;DHT22;43657;52.698;6.314;2023-05-07T08:54:05;19.10;99.90
57829;DHT22;43657;52.698;6.314;2023-05-07T08:56:31;19.10;99.90
57829;DHT22;43657;52.698;6.314;2023-05-07T08:58:57;19.20;99.90
57829;DHT22;43657;52.698;6.314;2023-05-07T09:01:24;19.20;99.90
57829;DHT22;43657;52.698;6.314;2023-05-07T09:03:50;19.30;99.90
57829;DHT22;43657;52.698;6.314;2023-05-07T09:06:16;19.80;99.90
57829;DHT22;43657;52.698;6.314;2023-05-07T09:08:49;20.00;99.90
57829;DHT22;43657;52.698;6.314;2023-05-07T09:11:16;20.10;99.90
57829;DHT22;43657;52.698;6.314;2023-05-07T09:13:42;20.20;99.90
57829;DHT22;43657;52.698;6.314;2023-05-07T09:16:11;20.30;99.90
57829;DHT22;43657;52.698;6.314;2023-05-07T09:18:41;20.30;99.90
57829;DHT22;43657;52.698;6.314;2023-05-07T09:21:09;20.90;99.90
57829;DHT22;43657;52.698;6.314;2023-05-07T09:23:35;21.40;99.90
57829;DHT22;43657;52.698;6.314;2023-05-07T09:26:01;21.60;99.60
57829;DHT22;43657;52.698;6.314;2023-05-07T09:28:27;21.30;99.90
57829;DHT22;43657;52.698;6.314;2023-05-07T09:30:53;21.00;99.30
57829;DHT22;43657;52.698;6.314;2023-05-07T09:33:18;20.40;99.90
57829;DHT22;43657;52.698;6.314;2023-05-07T09:35:44;20.10;99.90
57829;DHT22;43657;52.698;6.314;2023-05-07T09:38:10;19.90;99.90
57829;DHT22;43657;52.698;6.314;2023-05-07T09:40:35;19.50;99.90
57829;DHT22;43657;52.698;6.314;2023-05-07T09:43:11;19.30;99.90
57829;DHT22;43657;52.698;6.314;2023-05-07T09:45:41;19.20;99.90
57829;DHT22;43657;52.698;6.314;2023-05-07T09:48:06;19.30;99.90
57829;DHT22;43657;52.698;6.314;2023-05-07T09:50:36;19.50;99.90
57829;DHT22;43657;52.698;6.314;2023-05-07T09:53:05;19.50;99.90
57829;DHT22;43657;52.698;6.314;2023-05-07T09:55:32;19.60;99.90
57829;DHT22;43657;52.698;6.314;2023-05-07T09:57:57;19.70;99.90
57829;DHT22;43657;52.698;6.314;2023-05-07T10:00:24;19.80;99.90
57829;DHT22;43657;52.698;6.314;2023-05-07T10:02:57;19.90;99.90
57829;DHT22;43657;52.698;6.314;2023-05-07T10:05:22;19.80;99.90
57829;DHT22;43657;52.698;6.314;2023-05-07T10:07:49;19.80;99.90
57829;DHT22;43657;52.698;6.314;2023-05-07T10:10:16;19.80;99.90
57829;DHT22;43657;52.698;6.314;2023-05-07T10:12:42;19.80;99.90
57829;DHT22;43657;52.698;6.314;2023-05-07T10:15:09;19.80;99.90
57829;DHT22;43657;52.698;6.314;2023-05-07T10:17:36;20.00;99.90
57829;DHT22;43657;52.698;6.314;2023-05-07T10:20:05;20.20;99.90
57829;DHT22;43657;52.698;6.314;2023-05-07T10:22:39;20.40;99.90
57829;DHT22;43657;52.698;6.314;2023-05-07T10:25:17;21.00;99.90
57829;DHT22;43657;52.698;6.314;2023-05-07T10:27:44;21.30;99.90
57829;DHT22;43657;52.698;6.314;2023-05-07T10:32:44;21.30;99.90
57829;DHT22;43657;52.698;6.314;2023-05-07T10:35:22;21.40;99.90
57829;DHT22;43657;52.698;6.314;2023-05-07T10:37:50;21.90;99.10
57829;DHT22;43657;52.698;6.314;2023-05-07T10:40:16;22.00;99.90
57829;DHT22;43657;52.698;6.314;2023-05-07T10:42:59;21.90;99.90
57829;DHT22;43657;52.698;6.314;2023-05-07T10:45:26;21.80;98.20
57829;DHT22;43657;52.698;6.314;2023-05-07T10:48:08;21.40;99.90
57829;DHT22;43657;52.698;6.314;2023-05-07T10:50:35;21.20;99.90
57829;DHT22;43657;52.698;6.314;2023-05-07T10:55:50;21.10;99.90
57829;DHT22;43657;52.698;6.314;2023-05-07T11:00:48;21.80;99.90
57829;DHT22;43657;52.698;6.314;2023-05-07T11:03:14;22.00;99.90
57829;DHT22;43657;52.698;6.314;2023-05-07T11:05:41;21.90;99.90
57829;DHT22;43657;52.698;6.314;2023-05-07T11:08:07;21.80;99.90
57829;DHT22;43657;52.698;6.314;2023-05-07T11:10:51;21.60;99.90
57829;DHT22;43657;52.698;6.314;2023-05-07T11:13:17;21.40;99.90
57829;DHT22;43657;52.698;6.314;2023-05-07T11:15:47;21.40;99.90
57829;DHT22;43657;52.698;6.314;2023-05-07T11:18:17;21.70;99.90
57829;DHT22;43657;52.698;6.314;2023-05-07T11:20:56;22.20;99.90
57829;DHT22;43657;52.698;6.314;2023-05-07T11:28:30;22.70;86.50
57829;DHT22;43657;52.698;6.314;2023-05-07T11:30:57;22.50;91.60
57829;DHT22;43657;52.698;6.314;2023-05-07T11:33:23;22.50;94.20
57829;DHT22;43657;52.698;6.314;2023-05-07T11:35:52;22.50;95.80
57829;DHT22;43657;52.698;6.314;2023-05-07T11:38:18;22.50;96.40
57829;DHT22;43657;52.698;6.314;2023-05-07T11:40:51;22.50;90.20
57829;DHT22;43657;52.698;6.314;2023-05-07T11:43:21;22.10;95.90
57829;DHT22;43657;52.698;6.314;2023-05-07T11:45:49;22.00;99.90
57829;DHT22;43657;52.698;6.314;2023-05-07T11:48:16;22.10;94.70
57829;DHT22;43657;52.698;6.314;2023-05-07T11:51:05;21.90;97.50
57829;DHT22;43657;52.698;6.314;2023-05-07T11:53:39;21.60;97.80
57829;DHT22;43657;52.698;6.314;2023-05-07T11:56:09;21.20;99.90
57829;DHT22;43657;52.698;6.314;2023-05-07T11:58:35;21.10;99.90
57829;DHT22;43657;52.698;6.314;2023-05-07T12:01:01;21.30;99.90
57829;DHT22;43657;52.698;6.314;2023-05-07T12:03:27;21.10;99.90
57829;DHT22;43657;52.698;6.314;2023-05-07T12:05:53;20.90;99.90
57829;DHT22;43657;52.698;6.314;2023-05-07T12:08:20;20.60;99.90
57829;DHT22;43657;52.698;6.314;2023-05-07T12:10:48;20.70;99.90
57829;DHT22;43657;52.698;6.314;2023-05-07T12:13:18;20.90;99.90
57829;DHT22;43657;52.698;6.314;2023-05-07T12:15:44;20.80;99.90
57829;DHT22;43657;52.698;6.314;2023-05-07T12:18:11;20.90;99.90
57829;DHT22;43657;52.698;6.314;2023-05-07T12:20:37;21.20;99.90
57829;DHT22;43657;52.698;6.314;2023-05-07T12:23:03;21.60;99.90
57829;DHT22;43657;52.698;6.314;2023-05-07T12:25:41;21.80;97.50
57829;DHT22;43657;52.698;6.314;2023-05-07T12:28:16;21.70;99.90
57829;DHT22;43657;52.698;6.314;2023-05-07T12:30:50;21.70;99.90
57829;DHT22;43657;52.698;6.314;2023-05-07T12:33:27;22.10;97.70
57829;DHT22;43657;52.698;6.314;2023-05-07T12:36:06;22.10;91.60
57829;DHT22;43657;52.698;6.314;2023-05-07T12:38:41;21.80;99.70
57829;DHT22;43657;52.698;6.314;2023-05-07T12:41:11;21.70;99.00
57829;DHT22;43657;52.698;6.314;2023-05-07T12:43:46;21.80;99.90
57829;DHT22;43657;52.698;6.314;2023-05-07T12:46:42;21.60;99.90
57829;DHT22;43657;52.698;6.314;2023-05-07T12:49:46;21.60;99.90
57829;DHT22;43657;52.698;6.314;2023-05-07T12:52:35;21.60;99.90
57829;DHT22;43657;52.698;6.314;2023-05-07T12:55:20;21.50;99.90
57829;DHT22;43657;52.698;6.314;2023-05-07T12:58:00;21.30;99.90
57829;DHT22;43657;52.698;6.314;2023-05-07T13:00:57;21.30;99.90
57829;DHT22;43657;52.698;6.314;2023-05-07T13:03:51;21.50;99.90
57829;DHT22;43657;52.698;6.314;2023-05-07T13:06:35;21.30;99.90
57829;DHT22;43657;52.698;6.314;2023-05-07T13:09:08;21.00;99.90
57829;DHT22;43657;52.698;6.314;2023-05-07T13:11:48;21.10;99.90
57829;DHT22;43657;52.698;6.314;2023-05-07T13:14:41;21.30;99.90
57829;DHT22;43657;52.698;6.314;2023-05-07T13:17:18;21.10;99.90
57829;DHT22;43657;52.698;6.314;2023-05-07T13:19:45;20.80;99.90
57829;DHT22;43657;52.698;6.314;2023-05-07T13:22:14;20.50;99.90
57829;DHT22;43657;52.698;6.314;2023-05-07T13:24:40;20.20;99.90
57829;DHT22;43657;52.698;6.314;2023-05-07T13:27:08;20.10;99.90
57829;DHT22;43657;52.698;6.314;2023-05-07T13:29:45;20.20;99.90
57829;DHT22;43657;52.698;6.314;2023-05-07T13:32:22;20.30;99.90
57829;DHT22;43657;52.698;6.314;2023-05-07T13:34:55;20.30;99.90
57829;DHT22;43657;52.698;6.314;2023-05-07T13:37:26;20.70;99.90
57829;DHT22;43657;52.698;6.314;2023-05-07T13:39:55;20.70;99.90
57829;DHT22;43657;52.698;6.314;2023-05-07T13:42:21;20.90;99.90
57829;DHT22;43657;52.698;6.314;2023-05-07T13:44:49;21.10;99.90
57829;DHT22;43657;52.698;6.314;2023-05-07T13:47:14;21.10;99.90
57829;DHT22;43657;52.698;6.314;2023-05-07T13:49:41;20.80;99.90
57829;DHT22;43657;52.698;6.314;2023-05-07T13:52:07;20.50;99.90
57829;DHT22;43657;52.698;6.314;2023-05-07T13:54:32;20.30;99.90
57829;DHT22;43657;52.698;6.314;2023-05-07T13:56:58;20.30;99.90
57829;DHT22;43657;52.698;6.314;2023-05-07T13:59:23;20.40;99.90
57829;DHT22;43657;52.698;6.314;2023-05-07T14:01:49;20.40;99.90
57829;DHT22;43657;52.698;6.314;2023-05-07T14:04:14;20.40;99.90
57829;DHT22;43657;52.698;6.314;2023-05-07T14:06:40;20.30;99.90
57829;DHT22;43657;52.698;6.314;2023-05-07T14:09:05;20.30;99.90
57829;DHT22;43657;52.698;6.314;2023-05-07T14:11:31;20.20;99.90
57829;DHT22;43657;52.698;6.314;2023-05-07T14:13:57;20.20;99.90
57829;DHT22;43657;52.698;6.314;2023-05-07T14:16:23;20.10;99.90
57829;DHT22;43657;52.698;6.314;2023-05-07T14:18:49;20.00;99.90
57829;DHT22;43657;52.698;6.314;2023-05-07T14:21:14;20.10;99.90
57829;DHT22;43657;52.698;6.314;2023-05-07T14:23:40;20.10;99.90
57829;DHT22;43657;52.698;6.314;2023-05-07T14:26:05;20.20;99.90
57829;DHT22;43657;52.698;6.314;2023-05-07T14:28:31;20.10;99.90
57829;DHT22;43657;52.698;6.314;2023-05-07T14:30:56;20.10;99.90
57829;DHT22;43657;52.698;6.314;2023-05-07T14:33:22;20.20;99.90
57829;DHT22;43657;52.698;6.314;2023-05-07T14:35:47;19.90;99.90
57829;DHT22;43657;52.698;6.314;2023-05-07T14:38:14;19.80;99.90
57829;DHT22;43657;52.698;6.314;2023-05-07T14:40:41;19.90;99.90
57829;DHT22;43657;52.698;6.314;2023-05-07T14:43:06;19.90;99.90
57829;DHT22;43657;52.698;6.314;2023-05-07T14:45:32;20.00;99.90
57829;DHT22;43657;52.698;6.314;2023-05-07T14:47:57;19.90;99.90
57829;DHT22;43657;52.698;6.314;2023-05-07T14:50:26;19.90;99.90
57829;DHT22;43657;52.698;6.314;2023-05-07T14:52:51;19.80;99.90
57829;DHT22;43657;52.698;6.314;2023-05-07T14:55:17;19.70;99.90
57829;DHT22;43657;52.698;6.314;2023-05-07T14:57:42;19.50;99.90
57829;DHT22;43657;52.698;6.314;2023-05-07T15:00:08;19.40;99.90
57829;DHT22;43657;52.698;6.314;2023-05-07T15:02:36;19.30;99.90
57829;DHT22;43657;52.698;6.314;2023-05-07T15:05:02;19.30;99.90
57829;DHT22;43657;52.698;6.314;2023-05-07T15:07:27;19.20;99.90
57829;DHT22;43657;52.698;6.314;2023-05-07T15:09:53;19.10;99.90
57829;DHT22;43657;52.698;6.314;2023-05-07T15:12:19;19.10;99.90
57829;DHT22;43657;52.698;6.314;2023-05-07T15:14:45;18.90;99.90
57829;DHT22;43657;52.698;6.314;2023-05-07T15:17:10;18.80;99.90
57829;DHT22;43657;52.698;6.314;2023-05-07T15:19:36;18.70;99.90
57829;DHT22;43657;52.698;6.314;2023-05-07T15:22:07;18.90;99.90
57829;DHT22;43657;52.698;6.314;2023-05-07T15:24:33;18.90;99.90
57829;DHT22;43657;52.698;6.314;2023-05-07T15:27:01;18.80;99.90
57829;DHT22;43657;52.698;6.314;2023-05-07T15:29:31;18.90;99.90
57829;DHT22;43657;52.698;6.314;2023-05-07T15:31:57;18.80;99.90
57829;DHT22;43657;52.698;6.314;2023-05-07T15:34:28;18.70;99.90
57829;DHT22;43657;52.698;6.314;2023-05-07T15:36:59;18.70;99.90
57829;DHT22;43657;52.698;6.314;2023-05-07T15:39:44;18.70;99.90
57829;DHT22;43657;52.698;6.314;2023-05-07T15:42:35;18.80;99.90
57829;DHT22;43657;52.698;6.314;2023-05-07T15:45:24;18.90;99.90
57829;DHT22;43657;52.698;6.314;2023-05-07T15:47:59;18.90;99.90
57829;DHT22;43657;52.698;6.314;2023-05-07T15:50:38;18.80;99.90